sensor_id;sensor_type;location;lat;lon;timestamp;pressure;altitude;pressure_sealevel;temperature;humidity
9521;BME280;4798;41.574;23.734;2023-09-08T00:00:23;95693.84;;;21.72;73.82
9521;BME280;4798;41.574;23.734;2023-09-08T00:02:51;95690.97;;;21.97;73.10
9521;BME280;4798;41.574;23.734;2023-09-08T00:05:20;95688.00;;;22.23;72.77
9521;BME280;4798;41.574;23.734;2023-09-08T00:07:48;95680.50;;;22.41;73.70
9521;BME280;4798;41.574;23.734;2023-09-08T00:10:18;95689.91;;;22.23;75.24
9521;BME280;4798;41.574;23.734;2023-09-08T00:12:46;95675.97;;;22.33;74.18
9521;BME280;4798;41.574;23.734;2023-09-08T00:15:15;95692.78;;;22.50;73.84
9521;BME280;4798;41.574;23.734;2023-09-08T00:17:43;95685.91;;;22.41;72.41
9521;BME280;4798;41.574;23.734;2023-09-08T00:20:14;95661.88;;;22.15;72.84
9521;BME280;4798;41.574;23.734;2023-09-08T00:22:42;95700.75;;;22.35;73.38
9521;BME280;4798;41.574;23.734;2023-09-08T00:25:11;95692.56;;;22.43;72.21
9521;BME280;4798;41.574;23.734;2023-09-08T00:27:41;95697.41;;;22.50;71.94
9521;BME280;4798;41.574;23.734;2023-09-08T00:30:10;95687.38;;;22.50;72.68
9521;BME280;4798;41.574;23.734;2023-09-08T00:32:38;95698.19;;;22.50;72.24
9521;BME280;4798;41.574;23.734;2023-09-08T00:35:07;95698.06;;;22.47;72.26
9521;BME280;4798;41.574;23.734;2023-09-08T00:37:39;95697.75;;;22.48;71.73
9521;BME280;4798;41.574;23.734;2023-09-08T00:40:08;95677.00;;;22.40;71.62
9521;BME280;4798;41.574;23.734;2023-09-08T00:42:36;95702.78;;;22.50;73.15
9521;BME280;4798;41.574;23.734;2023-09-08T00:45:07;95697.97;;;22.55;70.72
9521;BME280;4798;41.574;23.734;2023-09-08T00:47:35;95706.63;;;22.49;70.91
9521;BME280;4798;41.574;23.734;2023-09-08T00:50:05;95708.78;;;22.55;71.37
9521;BME280;4798;41.574;23.734;2023-09-08T00:52:33;95704.97;;;22.56;70.78
9521;BME280;4798;41.574;23.734;2023-09-08T00:55:02;95701.09;;;22.45;71.26
9521;BME280;4798;41.574;23.734;2023-09-08T00:57:31;95707.88;;;22.51;71.83
9521;BME280;4798;41.574;23.734;2023-09-08T01:00:00;95707.41;;;22.49;71.74
9521;BME280;4798;41.574;23.734;2023-09-08T01:02:31;95699.88;;;22.55;72.41
9521;BME280;4798;41.574;23.734;2023-09-08T01:05:00;95699.84;;;22.31;74.60
9521;BME280;4798;41.574;23.734;2023-09-08T01:07:30;95699.94;;;21.81;79.38
9521;BME280;4798;41.574;23.734;2023-09-08T01:09:59;95694.75;;;21.76;80.11
9521;BME280;4798;41.574;23.734;2023-09-08T01:12:31;95697.81;;;21.53;82.85
9521;BME280;4798;41.574;23.734;2023-09-08T01:15:00;95683.13;;;21.22;85.76
9521;BME280;4798;41.574;23.734;2023-09-08T01:17:28;95681.81;;;20.99;90.22
9521;BME280;4798;41.574;23.734;2023-09-08T01:20:02;95683.44;;;21.20;91.75
9521;BME280;4798;41.574;23.734;2023-09-08T01:22:55;95682.00;;;21.23;87.15
9521;BME280;4798;41.574;23.734;2023-09-08T01:25:25;95677.81;;;21.05;86.06
9521;BME280;4798;41.574;23.734;2023-09-08T01:27:55;95653.06;;;20.82;87.12
9521;BME280;4798;41.574;23.734;2023-09-08T01:30:28;95666.81;;;20.89;87.48
9521;BME280;4798;41.574;23.734;2023-09-08T01:33:00;95670.31;;;20.89;88.07
9521;BME280;4798;41.574;23.734;2023-09-08T01:35:28;95665.81;;;20.94;89.32
9521;BME280;4798;41.574;23.734;2023-09-08T01:37:57;95670.22;;;20.98;86.61
9521;BME280;4798;41.574;23.734;2023-09-08T01:40:27;95666.50;;;21.20;85.85
9521;BME280;4798;41.574;23.734;2023-09-08T01:42:56;95665.00;;;21.02;85.08
9521;BME280;4798;41.574;23.734;2023-09-08T01:45:24;95656.50;;;20.91;85.41
9521;BME280;4798;41.574;23.734;2023-09-08T01:47:52;95678.50;;;20.93;85.70
9521;BME280;4798;41.574;23.734;2023-09-08T01:50:21;95666.94;;;20.92;84.45
9521;BME280;4798;41.574;23.734;2023-09-08T01:52:51;95657.41;;;20.95;84.16
9521;BME280;4798;41.574;23.734;2023-09-08T01:55:20;95664.06;;;20.98;84.02
9521;BME280;4798;41.574;23.734;2023-09-08T01:57:49;95661.84;;;21.00;84.66
9521;BME280;4798;41.574;23.734;2023-09-08T02:00:18;95662.06;;;20.86;84.86
9521;BME280;4798;41.574;23.734;2023-09-08T02:02:46;95662.25;;;20.81;84.93
9521;BME280;4798;41.574;23.734;2023-09-08T02:05:15;95666.81;;;20.89;84.82
9521;BME280;4798;41.574;23.734;2023-09-08T02:07:43;95673.31;;;20.88;84.47
9521;BME280;4798;41.574;23.734;2023-09-08T02:10:11;95669.97;;;20.91;84.46
9521;BME280;4798;41.574;23.734;2023-09-08T02:12:40;95672.47;;;20.96;85.92
9521;BME280;4798;41.574;23.734;2023-09-08T02:15:10;95660.47;;;20.85;82.79
9521;BME280;4798;41.574;23.734;2023-09-08T02:17:39;95658.00;;;21.01;82.80
9521;BME280;4798;41.574;23.734;2023-09-08T02:20:08;95579.50;;;20.61;81.33
9521;BME280;4798;41.574;23.734;2023-09-08T02:22:37;95664.66;;;21.12;81.41
9521;BME280;4798;41.574;23.734;2023-09-08T02:25:06;95653.53;;;21.34;80.27
9521;BME280;4798;41.574;23.734;2023-09-08T02:27:35;95644.19;;;21.11;80.73
9521;BME280;4798;41.574;23.734;2023-09-08T02:30:04;95644.66;;;20.83;81.65
9521;BME280;4798;41.574;23.734;2023-09-08T02:32:34;95634.69;;;21.05;82.49
9521;BME280;4798;41.574;23.734;2023-09-08T02:35:03;95647.44;;;21.25;81.23
9521;BME280;4798;41.574;23.734;2023-09-08T02:37:32;95640.59;;;20.98;82.55
9521;BME280;4798;41.574;23.734;2023-09-08T02:40:00;95645.44;;;21.13;81.32
9521;BME280;4798;41.574;23.734;2023-09-08T02:42:30;95643.28;;;20.98;81.71
9521;BME280;4798;41.574;23.734;2023-09-08T02:44:58;95637.66;;;20.82;82.19
9521;BME280;4798;41.574;23.734;2023-09-08T02:47:27;95640.75;;;20.72;84.46
9521;BME280;4798;41.574;23.734;2023-09-08T02:49:56;95614.41;;;20.49;82.95
9521;BME280;4798;41.574;23.734;2023-09-08T02:52:25;95641.03;;;20.79;80.31
9521;BME280;4798;41.574;23.734;2023-09-08T02:54:53;95636.94;;;20.73;80.69
9521;BME280;4798;41.574;23.734;2023-09-08T02:57:23;95634.66;;;20.84;80.76
9521;BME280;4798;41.574;23.734;2023-09-08T02:59:51;95636.91;;;20.82;80.54
9521;BME280;4798;41.574;23.734;2023-09-08T03:02:24;95516.44;;;19.66;80.32
9521;BME280;4798;41.574;23.734;2023-09-08T03:04:53;95601.06;;;20.14;81.73
9521;BME280;4798;41.574;23.734;2023-09-08T03:07:23;95624.00;;;20.20;79.87
9521;BME280;4798;41.574;23.734;2023-09-08T03:09:51;95635.19;;;20.40;79.93
9521;BME280;4798;41.574;23.734;2023-09-08T03:12:20;95635.28;;;20.52;80.09
9521;BME280;4798;41.574;23.734;2023-09-08T03:14:48;95631.41;;;20.70;79.47
9521;BME280;4798;41.574;23.734;2023-09-08T03:17:16;95591.00;;;20.41;78.16
9521;BME280;4798;41.574;23.734;2023-09-08T03:19:45;95636.84;;;20.61;78.55
9521;BME280;4798;41.574;23.734;2023-09-08T03:22:13;95640.75;;;20.72;77.87
9521;BME280;4798;41.574;23.734;2023-09-08T03:24:43;95633.25;;;20.78;77.32
9521;BME280;4798;41.574;23.734;2023-09-08T03:27:11;95558.47;;;20.25;76.89
9521;BME280;4798;41.574;23.734;2023-09-08T03:29:40;95627.34;;;20.64;78.18
9521;BME280;4798;41.574;23.734;2023-09-08T03:32:08;95631.84;;;20.43;78.12
9521;BME280;4798;41.574;23.734;2023-09-08T03:34:38;95611.19;;;20.26;78.54
9521;BME280;4798;41.574;23.734;2023-09-08T03:37:07;95640.75;;;20.35;77.60
9521;BME280;4798;41.574;23.734;2023-09-08T03:39:35;95631.22;;;19.82;77.84
9521;BME280;4798;41.574;23.734;2023-09-08T03:42:05;95639.63;;;19.81;78.91
9521;BME280;4798;41.574;23.734;2023-09-08T03:44:34;95645.81;;;19.73;81.66
9521;BME280;4798;41.574;23.734;2023-09-08T03:47:02;95641.88;;;19.53;80.92
9521;BME280;4798;41.574;23.734;2023-09-08T03:49:31;95643.63;;;19.40;82.19
9521;BME280;4798;41.574;23.734;2023-09-08T03:52:00;95642.44;;;19.84;81.40
9521;BME280;4798;41.574;23.734;2023-09-08T03:54:28;95638.91;;;20.09;80.40
9521;BME280;4798;41.574;23.734;2023-09-08T03:56:56;95647.63;;;20.23;79.72
9521;BME280;4798;41.574;23.734;2023-09-08T03:59:26;95644.06;;;19.59;79.81
9521;BME280;4798;41.574;23.734;2023-09-08T04:01:54;95655.75;;;19.63;80.57
9521;BME280;4798;41.574;23.734;2023-09-08T04:04:23;95657.53;;;19.59;80.02
9521;BME280;4798;41.574;23.734;2023-09-08T04:06:51;95658.31;;;19.60;79.83
9521;BME280;4798;41.574;23.734;2023-09-08T04:09:19;95645.66;;;19.78;81.43
9521;BME280;4798;41.574;23.734;2023-09-08T04:11:48;95655.47;;;19.65;81.32
9521;BME280;4798;41.574;23.734;2023-09-08T04:14:16;95645.16;;;19.84;80.98
9521;BME280;4798;41.574;23.734;2023-09-08T04:16:46;95660.50;;;19.67;79.96
9521;BME280;4798;41.574;23.734;2023-09-08T04:19:14;95657.97;;;19.36;80.54
9521;BME280;4798;41.574;23.734;2023-09-08T04:21:42;95654.38;;;19.57;81.25
9521;BME280;4798;41.574;23.734;2023-09-08T04:24:11;95667.63;;;19.88;81.27
9521;BME280;4798;41.574;23.734;2023-09-08T04:26:39;95640.44;;;19.64;79.96
9521;BME280;4798;41.574;23.734;2023-09-08T04:29:07;95667.78;;;19.66;80.19
9521;BME280;4798;41.574;23.734;2023-09-08T04:31:36;95667.94;;;19.61;81.15
9521;BME280;4798;41.574;23.734;2023-09-08T04:34:06;95672.19;;;19.28;79.95
9521;BME280;4798;41.574;23.734;2023-09-08T04:36:34;95654.22;;;19.37;80.83
9521;BME280;4798;41.574;23.734;2023-09-08T04:39:03;95666.06;;;19.61;80.65
9521;BME280;4798;41.574;23.734;2023-09-08T04:41:31;95692.31;;;19.90;79.63
9521;BME280;4798;41.574;23.734;2023-09-08T04:43:59;95645.34;;;19.53;78.50
9521;BME280;4798;41.574;23.734;2023-09-08T04:46:28;95684.03;;;20.04;78.37
9521;BME280;4798;41.574;23.734;2023-09-08T04:48:56;95681.72;;;19.85;78.94
9521;BME280;4798;41.574;23.734;2023-09-08T04:51:26;95690.53;;;19.94;76.86
9521;BME280;4798;41.574;23.734;2023-09-08T04:53:54;95686.59;;;19.92;79.28
9521;BME280;4798;41.574;23.734;2023-09-08T04:56:22;95695.47;;;19.75;77.64
9521;BME280;4798;41.574;23.734;2023-09-08T04:58:51;95686.63;;;19.83;78.37
9521;BME280;4798;41.574;23.734;2023-09-08T05:01:19;95680.28;;;19.79;76.62
9521;BME280;4798;41.574;23.734;2023-09-08T05:03:47;95686.41;;;20.05;78.18
9521;BME280;4798;41.574;23.734;2023-09-08T05:06:16;95685.63;;;19.96;75.79
9521;BME280;4798;41.574;23.734;2023-09-08T05:08:46;95690.41;;;19.91;76.55
9521;BME280;4798;41.574;23.734;2023-09-08T05:11:14;95682.44;;;20.29;75.84
9521;BME280;4798;41.574;23.734;2023-09-08T05:13:43;95693.63;;;20.48;77.31
9521;BME280;4798;41.574;23.734;2023-09-08T05:16:12;95690.81;;;20.73;75.81
9521;BME280;4798;41.574;23.734;2023-09-08T05:18:40;95641.41;;;20.32;73.81
9521;BME280;4798;41.574;23.734;2023-09-08T05:21:09;95692.50;;;20.49;74.46
9521;BME280;4798;41.574;23.734;2023-09-08T05:23:37;95699.09;;;20.68;73.58
9521;BME280;4798;41.574;23.734;2023-09-08T05:26:07;95688.09;;;20.82;74.05
9521;BME280;4798;41.574;23.734;2023-09-08T05:28:35;95699.28;;;20.92;74.18
9521;BME280;4798;41.574;23.734;2023-09-08T05:31:05;95698.38;;;21.18;72.30
9521;BME280;4798;41.574;23.734;2023-09-08T05:33:34;95699.22;;;21.30;72.20
9521;BME280;4798;41.574;23.734;2023-09-08T05:36:02;95692.88;;;21.56;71.95
9521;BME280;4798;41.574;23.734;2023-09-08T05:38:31;95702.03;;;21.42;71.67
9521;BME280;4798;41.574;23.734;2023-09-08T05:41:00;95671.41;;;21.38;70.35
9521;BME280;4798;41.574;23.734;2023-09-08T05:43:31;95691.31;;;21.55;69.21
9521;BME280;4798;41.574;23.734;2023-09-08T05:45:59;95696.50;;;21.60;68.69
9521;BME280;4798;41.574;23.734;2023-09-08T05:48:28;95661.44;;;21.39;69.29
9521;BME280;4798;41.574;23.734;2023-09-08T05:50:56;95686.44;;;21.89;69.61
9521;BME280;4798;41.574;23.734;2023-09-08T05:53:25;95653.03;;;21.94;68.25
9521;BME280;4798;41.574;23.734;2023-09-08T05:55:54;95710.75;;;22.34;66.59
9521;BME280;4798;41.574;23.734;2023-09-08T05:58:22;95681.41;;;22.57;65.06
9521;BME280;4798;41.574;23.734;2023-09-08T06:00:55;95702.19;;;23.01;64.02
9521;BME280;4798;41.574;23.734;2023-09-08T06:03:24;95705.69;;;23.50;63.24
9521;BME280;4798;41.574;23.734;2023-09-08T06:05:52;95678.63;;;23.38;61.58
9521;BME280;4798;41.574;23.734;2023-09-08T06:08:21;95669.88;;;23.69;62.24
9521;BME280;4798;41.574;23.734;2023-09-08T06:10:49;95678.59;;;24.18;59.70
9521;BME280;4798;41.574;23.734;2023-09-08T06:13:17;95700.59;;;24.75;59.04
9521;BME280;4798;41.574;23.734;2023-09-08T06:15:46;95708.84;;;24.20;57.43
9521;BME280;4798;41.574;23.734;2023-09-08T06:18:16;95699.44;;;24.45;57.30
9521;BME280;4798;41.574;23.734;2023-09-08T06:20:45;95700.78;;;24.67;56.72
9521;BME280;4798;41.574;23.734;2023-09-08T06:23:14;95699.44;;;25.23;55.06
9521;BME280;4798;41.574;23.734;2023-09-08T06:25:42;95699.75;;;25.53;53.13
9521;BME280;4798;41.574;23.734;2023-09-08T06:28:11;95666.75;;;25.00;52.58
9521;BME280;4798;41.574;23.734;2023-09-08T06:30:39;95705.63;;;25.55;52.73
9521;BME280;4798;41.574;23.734;2023-09-08T06:33:09;95702.66;;;25.44;53.00
9521;BME280;4798;41.574;23.734;2023-09-08T06:35:39;95700.56;;;25.38;53.75
9521;BME280;4798;41.574;23.734;2023-09-08T06:38:07;95713.94;;;25.81;53.09
9521;BME280;4798;41.574;23.734;2023-09-08T06:40:35;95703.09;;;26.00;51.39
9521;BME280;4798;41.574;23.734;2023-09-08T06:43:04;95718.03;;;26.71;51.86
9521;BME280;4798;41.574;23.734;2023-09-08T06:45:32;95713.25;;;26.64;50.23
9521;BME280;4798;41.574;23.734;2023-09-08T06:48:00;95703.72;;;26.74;49.17
9521;BME280;4798;41.574;23.734;2023-09-08T06:50:29;95715.72;;;27.18;48.06
9521;BME280;4798;41.574;23.734;2023-09-08T06:52:59;95709.94;;;27.20;48.26
9521;BME280;4798;41.574;23.734;2023-09-08T06:55:28;95713.47;;;27.46;48.41
9521;BME280;4798;41.574;23.734;2023-09-08T06:57:56;95688.09;;;27.39;46.70
9521;BME280;4798;41.574;23.734;2023-09-08T07:00:25;95712.34;;;27.25;46.57
9521;BME280;4798;41.574;23.734;2023-09-08T07:02:53;95714.19;;;27.43;47.50
9521;BME280;4798;41.574;23.734;2023-09-08T07:05:22;95713.06;;;27.74;46.39
9521;BME280;4798;41.574;23.734;2023-09-08T07:07:50;95713.97;;;27.55;46.57
9521;BME280;4798;41.574;23.734;2023-09-08T07:10:20;95677.28;;;27.46;46.54
9521;BME280;4798;41.574;23.734;2023-09-08T07:12:48;95712.03;;;28.12;46.53
9521;BME280;4798;41.574;23.734;2023-09-08T07:15:16;95708.44;;;28.04;45.87
9521;BME280;4798;41.574;23.734;2023-09-08T07:17:45;95706.69;;;28.22;46.15
9521;BME280;4798;41.574;23.734;2023-09-08T07:20:13;95701.44;;;28.07;45.54
9521;BME280;4798;41.574;23.734;2023-09-08T07:22:42;95684.84;;;28.19;45.39
9521;BME280;4798;41.574;23.734;2023-09-08T07:25:10;95705.97;;;27.66;44.15
9521;BME280;4798;41.574;23.734;2023-09-08T07:27:40;95706.28;;;27.91;46.59
9521;BME280;4798;41.574;23.734;2023-09-08T07:30:08;95707.28;;;28.75;43.91
9521;BME280;4798;41.574;23.734;2023-09-08T07:32:37;95695.19;;;29.20;41.87
9521;BME280;4798;41.574;23.734;2023-09-08T07:35:06;95695.66;;;29.29;43.67
9521;BME280;4798;41.574;23.734;2023-09-08T07:37:41;95703.25;;;29.10;43.04
9521;BME280;4798;41.574;23.734;2023-09-08T07:40:10;95700.44;;;28.55;42.58
9521;BME280;4798;41.574;23.734;2023-09-08T07:42:40;95689.38;;;28.78;44.70
9521;BME280;4798;41.574;23.734;2023-09-08T07:45:08;95697.03;;;29.09;42.95
9521;BME280;4798;41.574;23.734;2023-09-08T07:47:37;95684.22;;;29.17;42.94
9521;BME280;4798;41.574;23.734;2023-09-08T07:50:20;95685.50;;;28.82;42.60
9521;BME280;4798;41.574;23.734;2023-09-08T07:52:50;95681.47;;;28.69;42.23
9521;BME280;4798;41.574;23.734;2023-09-08T07:55:20;95685.47;;;28.42;42.14
9521;BME280;4798;41.574;23.734;2023-09-08T07:57:51;95687.31;;;29.15;43.62
9521;BME280;4798;41.574;23.734;2023-09-08T08:00:19;95666.91;;;28.95;41.65
9521;BME280;4798;41.574;23.734;2023-09-08T08:02:49;95666.41;;;28.79;42.55
9521;BME280;4798;41.574;23.734;2023-09-08T08:05:18;95670.09;;;29.62;41.29
9521;BME280;4798;41.574;23.734;2023-09-08T08:07:46;95664.69;;;29.73;41.67
9521;BME280;4798;41.574;23.734;2023-09-08T08:10:15;95671.00;;;29.84;41.69
9521;BME280;4798;41.574;23.734;2023-09-08T08:12:44;95674.69;;;30.27;40.35
9521;BME280;4798;41.574;23.734;2023-09-08T08:15:14;95665.75;;;30.37;39.13
9521;BME280;4798;41.574;23.734;2023-09-08T08:17:42;95664.63;;;30.48;39.74
9521;BME280;4798;41.574;23.734;2023-09-08T08:20:11;95664.03;;;29.97;39.43
9521;BME280;4798;41.574;23.734;2023-09-08T08:22:45;95663.69;;;30.09;41.24
9521;BME280;4798;41.574;23.734;2023-09-08T08:25:13;95655.66;;;30.76;39.73
9521;BME280;4798;41.574;23.734;2023-09-08T08:27:42;95657.63;;;31.00;39.24
9521;BME280;4798;41.574;23.734;2023-09-08T08:30:12;95659.97;;;31.05;39.69
9521;BME280;4798;41.574;23.734;2023-09-08T08:32:41;95654.88;;;30.86;39.23
9521;BME280;4798;41.574;23.734;2023-09-08T08:35:10;95654.09;;;31.31;37.68
9521;BME280;4798;41.574;23.734;2023-09-08T08:37:40;95646.16;;;30.24;38.30
9521;BME280;4798;41.574;23.734;2023-09-08T08:40:10;95640.38;;;30.40;40.30
9521;BME280;4798;41.574;23.734;2023-09-08T08:42:40;95644.31;;;30.81;38.74
9521;BME280;4798;41.574;23.734;2023-09-08T08:45:09;95638.41;;;30.54;39.20
9521;BME280;4798;41.574;23.734;2023-09-08T08:47:40;95627.09;;;30.56;39.34
9521;BME280;4798;41.574;23.734;2023-09-08T08:50:10;95635.53;;;30.01;40.14
9521;BME280;4798;41.574;23.734;2023-09-08T08:52:39;95629.47;;;30.78;39.26
9521;BME280;4798;41.574;23.734;2023-09-08T08:55:08;95612.25;;;30.60;38.70
9521;BME280;4798;41.574;23.734;2023-09-08T08:57:37;95626.28;;;31.36;38.60
9521;BME280;4798;41.574;23.734;2023-09-08T09:00:08;95624.31;;;31.40;38.47
9521;BME280;4798;41.574;23.734;2023-09-08T09:02:41;95622.22;;;31.87;37.41
9521;BME280;4798;41.574;23.734;2023-09-08T09:05:19;95609.75;;;31.68;36.80
9521;BME280;4798;41.574;23.734;2023-09-08T09:07:48;95586.72;;;30.03;37.85
9521;BME280;4798;41.574;23.734;2023-09-08T09:10:18;95605.84;;;29.96;38.81
9521;BME280;4798;41.574;23.734;2023-09-08T09:12:46;95598.94;;;30.87;38.32
9521;BME280;4798;41.574;23.734;2023-09-08T09:15:14;95591.16;;;30.78;38.49
9521;BME280;4798;41.574;23.734;2023-09-08T09:18:02;95600.16;;;30.97;37.18
9521;BME280;4798;41.574;23.734;2023-09-08T09:20:31;95591.84;;;31.39;36.50
9521;BME280;4798;41.574;23.734;2023-09-08T09:23:00;95566.75;;;31.62;36.54
9521;BME280;4798;41.574;23.734;2023-09-08T09:25:30;95584.72;;;31.63;35.86
9521;BME280;4798;41.574;23.734;2023-09-08T09:28:00;95584.50;;;30.97;36.46
9521;BME280;4798;41.574;23.734;2023-09-08T09:30:46;95596.47;;;32.39;36.04
9521;BME280;4798;41.574;23.734;2023-09-08T09:33:17;95593.78;;;31.53;35.14
9521;BME280;4798;41.574;23.734;2023-09-08T09:35:47;95573.03;;;31.48;35.88
9521;BME280;4798;41.574;23.734;2023-09-08T09:38:16;95583.53;;;31.71;35.53
9521;BME280;4798;41.574;23.734;2023-09-08T09:40:45;95584.50;;;30.41;35.18
9521;BME280;4798;41.574;23.734;2023-09-08T09:43:14;95566.41;;;29.90;35.12
9521;BME280;4798;41.574;23.734;2023-09-08T09:45:43;95597.00;;;30.63;36.43
9521;BME280;4798;41.574;23.734;2023-09-08T09:48:12;95571.19;;;30.74;34.64
9521;BME280;4798;41.574;23.734;2023-09-08T09:50:42;95575.50;;;30.72;33.93
9521;BME280;4798;41.574;23.734;2023-09-08T09:53:11;95529.31;;;31.13;35.99
9521;BME280;4798;41.574;23.734;2023-09-08T09:55:41;95566.63;;;32.52;34.19
9521;BME280;4798;41.574;23.734;2023-09-08T09:58:10;95544.59;;;32.62;32.29
9521;BME280;4798;41.574;23.734;2023-09-08T10:00:39;95553.56;;;32.15;33.69
9521;BME280;4798;41.574;23.734;2023-09-08T10:03:08;95552.59;;;32.39;32.29
9521;BME280;4798;41.574;23.734;2023-09-08T10:05:38;95538.25;;;31.27;32.19
9521;BME280;4798;41.574;23.734;2023-09-08T10:08:08;95521.16;;;31.89;32.85
9521;BME280;4798;41.574;23.734;2023-09-08T10:10:37;95547.44;;;32.45;32.80
9521;BME280;4798;41.574;23.734;2023-09-08T10:13:10;95545.84;;;32.95;32.26
9521;BME280;4798;41.574;23.734;2023-09-08T10:15:40;95537.31;;;33.61;31.98
9521;BME280;4798;41.574;23.734;2023-09-08T10:18:11;95533.13;;;33.49;30.86
9521;BME280;4798;41.574;23.734;2023-09-08T10:20:44;95536.84;;;33.66;31.12
9521;BME280;4798;41.574;23.734;2023-09-08T10:23:22;95524.44;;;33.51;31.38
9521;BME280;4798;41.574;23.734;2023-09-08T10:25:55;95538.50;;;33.26;31.86
9521;BME280;4798;41.574;23.734;2023-09-08T10:28:28;95518.03;;;32.93;31.92
9521;BME280;4798;41.574;23.734;2023-09-08T10:30:58;95532.75;;;31.38;32.47
9521;BME280;4798;41.574;23.734;2023-09-08T10:33:28;95529.81;;;31.87;33.58
9521;BME280;4798;41.574;23.734;2023-09-08T10:35:57;95535.22;;;32.56;32.17
9521;BME280;4798;41.574;23.734;2023-09-08T10:38:32;95536.44;;;32.96;31.86
9521;BME280;4798;41.574;23.734;2023-09-08T10:41:26;95534.31;;;32.74;31.98
9521;BME280;4798;41.574;23.734;2023-09-08T10:44:02;95523.81;;;33.06;31.88
9521;BME280;4798;41.574;23.734;2023-09-08T10:46:32;95528.97;;;33.68;29.92
9521;BME280;4798;41.574;23.734;2023-09-08T10:49:03;95540.25;;;34.07;30.31
9521;BME280;4798;41.574;23.734;2023-09-08T10:51:34;95535.34;;;33.61;30.58
9521;BME280;4798;41.574;23.734;2023-09-08T10:54:06;95535.00;;;34.43;30.18
9521;BME280;4798;41.574;23.734;2023-09-08T10:56:47;95532.00;;;34.07;28.20
9521;BME280;4798;41.574;23.734;2023-09-08T10:59:17;95530.72;;;34.65;29.93
9521;BME280;4798;41.574;23.734;2023-09-08T11:01:47;95525.38;;;33.74;28.57
9521;BME280;4798;41.574;23.734;2023-09-08T11:04:15;95530.06;;;34.31;30.47
9521;BME280;4798;41.574;23.734;2023-09-08T11:06:46;95496.59;;;34.09;28.78
9521;BME280;4798;41.574;23.734;2023-09-08T11:09:16;95498.66;;;34.02;29.95
9521;BME280;4798;41.574;23.734;2023-09-08T11:11:45;95525.28;;;34.08;29.20
9521;BME280;4798;41.574;23.734;2023-09-08T11:14:13;95514.13;;;33.92;28.50
9521;BME280;4798;41.574;23.734;2023-09-08T11:16:43;95520.53;;;34.12;29.70
9521;BME280;4798;41.574;23.734;2023-09-08T11:19:11;95524.47;;;32.28;29.69
9521;BME280;4798;41.574;23.734;2023-09-08T11:21:40;95508.97;;;32.04;29.87
9521;BME280;4798;41.574;23.734;2023-09-08T11:24:09;95500.94;;;32.31;29.68
9521;BME280;4798;41.574;23.734;2023-09-08T11:26:43;95500.22;;;33.08;29.47
9521;BME280;4798;41.574;23.734;2023-09-08T11:29:14;95479.84;;;32.69;30.02
9521;BME280;4798;41.574;23.734;2023-09-08T11:31:42;95498.22;;;31.58;29.97
9521;BME280;4798;41.574;23.734;2023-09-08T11:34:11;95500.75;;;32.52;29.76
9521;BME280;4798;41.574;23.734;2023-09-08T11:36:41;95512.91;;;33.66;29.73
9521;BME280;4798;41.574;23.734;2023-09-08T11:39:10;95472.81;;;33.69;29.21
9521;BME280;4798;41.574;23.734;2023-09-08T11:41:38;95488.91;;;34.24;28.87
9521;BME280;4798;41.574;23.734;2023-09-08T11:44:08;95494.44;;;34.70;28.87
9521;BME280;4798;41.574;23.734;2023-09-08T11:46:37;95492.47;;;34.21;28.71
9521;BME280;4798;41.574;23.734;2023-09-08T11:49:06;95456.75;;;33.34;29.44
9521;BME280;4798;41.574;23.734;2023-09-08T11:51:34;95478.16;;;34.06;28.58
9521;BME280;4798;41.574;23.734;2023-09-08T11:54:04;95493.84;;;33.82;27.02
9521;BME280;4798;41.574;23.734;2023-09-08T11:56:32;95486.22;;;34.20;28.66
9521;BME280;4798;41.574;23.734;2023-09-08T11:59:02;95481.81;;;35.16;26.62
9521;BME280;4798;41.574;23.734;2023-09-08T12:01:32;95426.84;;;35.08;26.87
9521;BME280;4798;41.574;23.734;2023-09-08T12:04:00;95481.38;;;34.74;28.29
9521;BME280;4798;41.574;23.734;2023-09-08T12:06:29;95478.91;;;35.23;28.05
9521;BME280;4798;41.574;23.734;2023-09-08T12:09:00;95478.97;;;35.58;26.58
9521;BME280;4798;41.574;23.734;2023-09-08T12:11:32;95464.75;;;35.80;26.09
9521;BME280;4798;41.574;23.734;2023-09-08T12:14:06;95469.94;;;35.19;27.83
9521;BME280;4798;41.574;23.734;2023-09-08T12:16:36;95477.72;;;35.24;27.71
9521;BME280;4798;41.574;23.734;2023-09-08T12:19:04;95468.19;;;35.08;26.73
9521;BME280;4798;41.574;23.734;2023-09-08T12:21:42;95479.44;;;34.94;27.81
9521;BME280;4798;41.574;23.734;2023-09-08T12:24:46;95473.63;;;35.32;27.14
9521;BME280;4798;41.574;23.734;2023-09-08T12:27:14;95468.34;;;36.12;27.25
9521;BME280;4798;41.574;23.734;2023-09-08T12:29:52;95420.94;;;37.20;24.86
9521;BME280;4798;41.574;23.734;2023-09-08T12:32:22;95470.13;;;37.12;24.83
9521;BME280;4798;41.574;23.734;2023-09-08T12:34:51;95466.84;;;36.24;24.74
9521;BME280;4798;41.574;23.734;2023-09-08T12:37:20;95462.81;;;36.12;25.29
9521;BME280;4798;41.574;23.734;2023-09-08T12:39:50;95463.13;;;35.03;27.00
9521;BME280;4798;41.574;23.734;2023-09-08T12:42:18;95466.53;;;34.45;27.20
9521;BME280;4798;41.574;23.734;2023-09-08T12:44:48;95471.91;;;33.75;28.51
9521;BME280;4798;41.574;23.734;2023-09-08T12:47:17;95419.06;;;33.00;28.32
9521;BME280;4798;41.574;23.734;2023-09-08T12:49:47;95473.94;;;33.07;29.22
9521;BME280;4798;41.574;23.734;2023-09-08T12:52:15;95472.06;;;32.60;29.39
9521;BME280;4798;41.574;23.734;2023-09-08T12:54:44;95482.31;;;31.28;30.92
9521;BME280;4798;41.574;23.734;2023-09-08T12:57:12;95475.03;;;30.76;31.69
9521;BME280;4798;41.574;23.734;2023-09-08T12:59:41;95450.84;;;30.14;31.80
9521;BME280;4798;41.574;23.734;2023-09-08T13:02:09;95432.78;;;30.80;32.20
9521;BME280;4798;41.574;23.734;2023-09-08T13:04:39;95480.84;;;30.89;32.54
9521;BME280;4798;41.574;23.734;2023-09-08T13:07:09;95480.84;;;30.85;32.79
9521;BME280;4798;41.574;23.734;2023-09-08T13:09:37;95421.31;;;31.24;32.72
9521;BME280;4798;41.574;23.734;2023-09-08T13:12:06;95477.75;;;32.35;30.39
9521;BME280;4798;41.574;23.734;2023-09-08T13:14:35;95460.38;;;32.49;31.24
9521;BME280;4798;41.574;23.734;2023-09-08T13:17:04;95474.88;;;32.49;31.11
9521;BME280;4798;41.574;23.734;2023-09-08T13:19:33;95465.19;;;32.82;29.13
9521;BME280;4798;41.574;23.734;2023-09-08T13:22:01;95482.28;;;32.59;28.16